Latest Weather Observations for Scottsdale

IDT60801

Issued at 4:05 am EST Wednesday 1 October 2014 (issued every 30 minutes, with the page automatically refreshed every 10 minutes)

About weather observations | Map of weather stations | Latest weather observations for TAS | Other Formats
Station Details ID: 091219 Name: SCOTTSDALE (WEST MINSTONE ROAD) Lat: -41.17 Lon: 147.49 Height: 197.5 m
Data from the previous 72 hours. | See also: Recent months at Scottsdale
Date/Time
EST
Temp
°C
App
Temp
°C
Dew
Point
Rel
Hum
%
Delta-T
°C
Wind Press
QNH
hPa
Press
MSL
hPa
Rain
since 9 am
mm
Dir
 
Spd
km/h
Gust
km/h
Spd
kts
Gust
kts
01/04:00am 3.5 -0.3 -0.8 73 1.6 NNW 9 15 5 8 1008.3 - 8.8
01/03:30am 2.8 -1.0 -0.7 78 1.3 SE 9 15 5 8 1007.9 - 8.8
01/03:00am 3.9 1.8 -0.9 71 1.8 E 0 7 0 4 1007.0 1007.1 8.8
01/02:30am 3.7 -0.5 -0.9 72 1.7 ESE 11 17 6 9 1006.7 - 8.8
01/02:00am 4.0 0.9 0.1 76 1.5 SW 6 9 3 5 1006.4 - 8.8
01/01:30am 3.7 0.5 0.6 80 1.2 W 7 11 4 6 1006.3 - 8.8
01/01:00am 3.5 -0.5 0.4 80 1.2 ESE 11 17 6 9 1005.8 - 8.8
01/12:30am 3.4 -0.2 0.3 80 1.2 N 9 11 5 6 1005.6 - 8.8
01/12:00am 4.8 1.8 0.5 74 1.7 NE 6 9 3 5 1005.0 1005.3 8.8
 
Date/Time
EST
Temp
°C
App
Temp
°C
Dew
Point
Rel
Hum
%
Delta-T
°C
Wind Press
QNH
hPa
Press
MSL
hPa
Rain
since 9 am
mm
Dir
 
Spd
km/h
Gust
km/h
Spd
kts
Gust
kts
30/11:30pm 3.5 0.5 0.9 83 1.0 ENE 6 9 3 5 1004.8 - 8.8
30/11:00pm 5.7 2.6 0.4 69 2.1 W 6 11 3 6 1004.1 - 8.8
30/10:30pm 5.6 2.4 0.5 70 2.0 S 7 13 4 7 1003.7 - 8.8
30/10:00pm 5.6 2.5 1.1 73 1.8 WNW 7 11 4 6 1003.3 - 8.8
30/09:30pm 6.6 1.0 0.9 67 2.3 W 20 37 11 20 1002.6 - 8.8
30/09:00pm 6.8 0.6 2.0 71 2.0 W 24 35 13 19 1001.9 1002.2 8.8
30/08:30pm 6.9 0.5 3.4 78 1.5 W 26 39 14 21 1001.1 - 8.8
30/08:00pm 7.6 1.7 4.0 78 1.6 W 24 35 13 19 1000.3 - 8.8
30/07:30pm 8.2 3.4 5.6 84 1.2 WNW 20 30 11 16 999.8 - 8.8
30/07:00pm 8.6 4.0 6.7 88 0.9 WNW 20 28 11 15 998.7 - 8.6
30/06:30pm 8.8 4.4 6.5 85 1.1 W 19 33 10 18 996.9 - 8.6
30/06:00pm 9.1 4.1 8.1 93 0.5 WNW 24 39 13 21 997.5 997.8 8.6
30/05:30pm 9.3 4.4 8.3 93 0.5 WNW 24 39 13 21 996.5 - 8.4
30/05:00pm 9.4 5.3 8.6 95 0.4 WNW 20 32 11 17 997.1 - 7.4
30/04:30pm 9.6 5.4 8.2 91 0.7 NW 20 32 11 17 996.7 - 6.6
30/04:00pm 9.9 6.0 8.7 92 0.6 WNW 19 32 10 17 996.7 - 6.4
30/03:30pm 10.6 5.2 9.4 92 0.6 WNW 28 44 15 24 996.5 - 5.6
30/03:00pm 11.5 2.9 10.4 93 0.6 NW 46 72 25 39 995.9 996.1 4.4
30/02:54pm 11.8 2.0 10.1 89 0.9 NW 52 72 28 39 995.4 - 3.8
30/02:30pm 11.9 6.7 10.4 90 0.8 NNW 28 54 15 29 996.3 - 2.8
30/02:20pm 11.7 6.6 10.6 93 0.6 NNW 28 46 15 25 996.5 - 2.6
30/02:00pm 11.9 6.4 10.6 92 0.7 NNW 30 43 16 23 997.2 - 1.2
30/01:30pm 13.1 6.7 9.2 77 2.0 NNW 33 59 18 32 997.8 - 0.4
30/01:00pm 13.1 7.0 9.6 79 1.8 NW 32 52 17 28 998.4 - 0.4
30/12:35pm 13.3 7.1 9.4 77 2.0 NW 32 56 17 30 999.0 - 0.4
30/12:30pm 13.3 7.5 9.6 78 1.9 NW 30 46 16 25 999.2 - 0.4
30/12:01pm 12.7 7.4 10.0 84 1.4 NNW 28 46 15 25 999.6 - 0.4
30/12:00pm 12.7 7.0 9.8 82 1.5 NNW 30 46 16 25 999.7 999.9 0.4
30/11:47am 12.7 6.6 9.6 81 1.6 NNW 32 52 17 28 999.8 - 0.4
30/11:30am 12.6 6.9 9.9 83 1.4 NW 30 46 16 25 1000.2 - 0.4
30/11:25am 12.8 7.5 9.7 81 1.6 NNW 28 46 15 25 1000.2 - 0.4
30/11:00am 12.6 7.9 10.7 88 1.0 NNW 26 41 14 22 1000.8 - 0.4
30/10:30am 11.9 6.4 10.4 90 0.8 NNW 30 48 16 26 1001.5 - 0.4
30/10:00am 12.1 6.7 9.4 83 1.4 NW 28 50 15 27 1002.0 - 0.0
30/09:30am 12.9 6.4 8.8 76 2.1 NW 33 59 18 32 1002.5 - 0.0
30/09:16am 12.5 6.7 9.4 81 1.6 NW 30 54 16 29 1002.8 - 0.0
30/09:00am 12.2 8.0 9.9 86 1.2 NNW 22 35 12 19 1003.0 1003.2 0.0
30/08:44am 12.5 7.1 9.4 81 1.6 NNW 28 48 15 26 1003.2 - 0.0
30/08:30am 12.2 7.9 9.3 82 1.5 NW 22 32 12 17 1003.6 - 0.0
30/08:00am 12.0 8.1 9.5 85 1.3 NW 20 32 11 17 1004.1 - 0.0
30/07:30am 11.8 7.9 9.5 86 1.2 NW 20 33 11 18 1004.6 - 0.0
30/07:00am 11.4 7.7 9.4 87 1.0 NNW 19 30 10 16 1004.6 - 0.0
30/06:30am 11.2 8.2 9.4 89 0.9 NNW 15 22 8 12 1004.9 - 0.0
30/06:00am 10.8 8.7 9.6 92 0.6 NW 11 17 6 9 1005.0 1005.3 0.0
30/05:30am 10.8 8.3 9.6 92 0.6 NNW 13 19 7 10 1005.0 - 0.0
30/05:00am 10.7 8.1 9.3 91 0.7 NNW 13 19 7 10 1005.2 - 0.0
30/04:30am 11.1 7.8 9.7 91 0.7 NNW 17 20 9 11 1005.6 - 0.0
30/04:00am 11.3 7.7 9.9 91 0.7 NNW 19 26 10 14 1006.1 - 0.0
30/03:30am 11.3 7.6 10.1 92 0.6 NW 20 30 11 16 1006.6 - 0.0
30/03:00am 11.4 7.7 10.0 91 0.7 NW 20 30 11 16 1006.7 1007.0 0.0
30/02:30am 11.4 6.9 10.0 91 0.7 NNW 24 43 13 23 1007.1 - 0.0
30/02:00am 11.2 7.5 10.0 92 0.6 NW 20 26 11 14 1007.6 - 0.0
30/01:30am 11.1 7.5 9.9 92 0.6 NW 19 33 10 18 1008.0 - 0.0
30/01:00am 10.4 7.5 9.6 95 0.4 NW 15 28 8 15 1008.5 - 0.0
30/12:30am 10.2 7.6 9.4 95 0.4 NNW 13 19 7 10 1008.8 - 0.0
30/12:00am 9.9 7.1 8.5 91 0.7 NW 13 17 7 9 1008.9 1009.1 0.0
 
Date/Time
EST
Temp
°C
App
Temp
°C
Dew
Point
Rel
Hum
%
Delta-T
°C
Wind Press
QNH
hPa
Press
MSL
hPa
Rain
since 9 am
mm
Dir
 
Spd
km/h
Gust
km/h
Spd
kts
Gust
kts
29/11:30pm 9.4 6.8 7.7 89 0.8 NW 11 17 6 9 1009.0 - 0.0
29/11:00pm 9.0 6.7 7.5 90 0.7 WNW 9 15 5 8 1008.7 - 0.0
29/10:30pm 8.8 6.5 7.3 90 0.7 NW 9 13 5 7 1008.9 - 0.0
29/10:00pm 9.1 6.4 7.2 88 0.9 NW 11 13 6 7 1008.8 - 0.0
29/09:30pm 9.4 6.6 7.1 85 1.1 NNW 11 15 6 8 1008.8 - 0.0
29/09:00pm 9.2 7.3 6.9 85 1.1 W 6 9 3 5 1008.9 1009.1 0.0
29/08:30pm 9.3 6.9 7.0 85 1.1 NNW 9 13 5 7 1009.3 - 0.0
29/08:00pm 10.2 7.7 6.6 78 1.7 NW 9 13 5 7 1009.4 - 0.0
29/07:30pm 10.5 7.2 6.5 76 1.9 WNW 13 20 7 11 1009.1 - 0.0
29/07:00pm 10.6 6.1 6.1 74 2.1 WNW 19 26 10 14 1009.1 - 0.0
29/06:30pm 11.0 6.2 5.7 70 2.5 NW 20 32 11 17 1008.5 - 0.0
29/06:00pm 11.5 6.3 5.3 65 2.9 WNW 22 39 12 21 1008.3 1008.5 0.0
29/05:30pm 12.3 6.6 5.0 61 3.4 WNW 24 37 13 20 1008.0 - 0.0
29/05:00pm 13.1 7.3 4.5 56 4.0 WNW 24 43 13 23 1007.8 - 0.0
29/04:31pm 13.5 7.1 5.0 56 4.0 WNW 28 46 15 25 1007.6 - 0.0
29/04:30pm 13.4 6.5 4.6 55 4.1 WNW 30 46 16 25 1007.6 - 0.0
29/04:01pm 13.9 7.4 4.5 53 4.4 WNW 28 46 15 25 1007.6 - 0.0
29/04:00pm 13.9 7.7 4.5 53 4.4 WNW 26 46 14 25 1007.6 - 0.0
29/03:30pm 13.7 8.1 5.3 57 4.0 WNW 24 37 13 20 1007.8 - 0.0
29/03:09pm 14.1 7.5 4.2 51 4.6 NW 28 46 15 25 1007.9 - 0.0
29/03:00pm 14.7 8.6 4.8 51 4.7 WNW 26 54 14 29 1007.9 1008.1 0.0
29/02:52pm 14.8 8.0 5.2 52 4.6 WNW 30 54 16 29 1007.9 - 0.0
29/02:30pm 15.0 8.5 4.9 51 4.8 NW 28 44 15 24 1007.8 - 0.0
29/02:00pm 14.2 7.3 4.6 52 4.5 WNW 30 48 16 26 1007.8 - 0.0
29/01:30pm 14.9 7.9 3.9 47 5.1 WNW 30 48 16 26 1007.8 - 0.0
29/01:00pm 14.7 7.5 3.1 45 5.3 WNW 30 48 16 26 1007.9 - 0.0
29/12:30pm 15.4 9.2 6.0 53 4.6 WNW 28 48 15 26 1007.9 - 0.0
29/12:24pm 14.7 8.3 5.0 52 4.6 WNW 28 48 15 26 1007.8 - 0.0
29/12:00pm 14.5 7.8 3.4 47 5.1 WNW 28 43 15 23 1008.0 1008.2 0.0
29/11:30am 14.7 8.1 4.2 49 4.9 WNW 28 43 15 23 1007.9 - 0.0
29/11:11am 13.9 7.0 2.8 47 5.0 WNW 28 46 15 25 1007.9 - 0.0
29/11:00am 13.5 7.2 3.9 52 4.4 WNW 26 41 14 22 1008.0 - 0.0
29/10:30am 13.5 6.8 3.7 51 4.5 WNW 28 50 15 27 1008.1 - 0.0
29/10:11am 13.4 6.6 3.2 50 4.6 WNW 28 46 15 25 1007.9 - 0.0
29/10:00am 13.6 8.1 3.8 51 4.5 WNW 22 35 12 19 1007.7 - 0.0
29/09:30am 13.4 8.8 5.4 58 3.8 WNW 19 26 10 14 1007.5 - 0.0
29/09:00am 12.6 7.8 5.6 62 3.3 W 20 28 11 15 1007.6 1007.8 2.0
29/08:30am 12.1 8.7 7.6 74 2.2 WNW 15 24 8 13 1007.6 - 2.0
29/08:00am 11.1 7.9 6.7 74 2.1 WNW 13 20 7 11 1007.1 - 2.0
29/07:30am 10.8 7.5 6.4 74 2.1 WNW 13 20 7 11 1006.4 - 2.0
29/07:00am 10.1 7.0 7.4 83 1.3 WNW 13 20 7 11 1005.6 - 2.0
29/06:30am 9.9 6.9 7.9 87 1.0 WNW 13 19 7 10 1005.2 - 2.0
29/06:00am 10.0 7.2 8.4 90 0.8 WNW 13 20 7 11 1004.2 1004.4 2.0
29/05:30am 10.5 6.4 8.7 89 0.9 WNW 20 32 11 17 1003.4 - 2.0
29/05:00am 11.0 6.3 9.4 90 0.8 WNW 24 37 13 20 1002.9 - 2.0
29/04:42am 11.1 4.4 9.5 90 0.8 W 35 54 19 29 1002.6 - 2.0
29/04:40am 11.1 3.6 9.5 90 0.8 W 39 54 21 29 1002.5 - 2.0
29/04:30am 11.2 5.6 10.2 94 0.5 NW 30 48 16 26 1002.5 - 2.0
29/04:29am 11.2 5.6 10.2 94 0.5 NW 30 48 16 26 1002.4 - 2.0
29/04:00am 11.3 6.4 9.9 91 0.7 NW 26 37 14 20 1002.2 - 1.4
29/03:30am 11.4 6.4 9.6 89 0.9 NW 26 43 14 23 1001.9 - 1.4
29/03:12am 11.4 6.0 9.4 87 1.0 NW 28 46 15 25 1001.9 - 1.4
29/03:00am 11.4 6.3 9.2 86 1.1 NW 26 46 14 25 1001.8 1002.1 1.4
29/02:30am 11.3 6.2 9.3 87 1.0 NW 26 39 14 21 1001.9 - 1.4
29/02:00am 11.2 6.8 9.0 86 1.1 NW 22 35 12 19 1002.3 - 1.4
29/01:30am 11.9 7.9 10.4 90 0.8 W 22 39 12 21 1002.0 - 1.4
29/01:00am 12.3 8.9 11.4 94 0.5 WNW 20 35 11 19 1002.3 - 1.4
29/12:30am 12.5 9.5 11.8 95 0.4 NW 19 32 10 17 1001.9 - 1.2
29/12:00am 12.8 10.8 11.5 92 0.7 NNW 13 22 7 12 1001.8 1002.1 1.2
 
Date/Time
EST
Temp
°C
App
Temp
°C
Dew
Point
Rel
Hum
%
Delta-T
°C
Wind Press
QNH
hPa
Press
MSL
hPa
Rain
since 9 am
mm
Dir
 
Spd
km/h
Gust
km/h
Spd
kts
Gust
kts
28/11:30pm 12.7 11.9 11.6 93 0.6 NW 7 11 4 6 1002.2 - 1.0
28/11:00pm 12.9 13.0 11.4 91 0.8 NNW 2 7 1 4 1002.0 - 0.6
28/10:30pm 12.8 11.9 11.5 92 0.7 N 7 9 4 5 1002.0 - 0.2
28/10:00pm 13.4 12.7 11.5 88 1.0 N 6 9 3 5 1002.3 - 0.2
28/09:30pm 14.3 12.9 10.9 80 1.8 N 9 11 5 6 1002.7 - 0.0
28/09:00pm 14.8 13.4 10.9 77 2.1 N 9 13 5 7 1002.7 1002.8 0.0
28/08:30pm 16.0 12.9 10.2 68 3.1 NNW 17 30 9 16 1003.0 - 0.0
28/08:00pm 16.0 13.2 10.0 67 3.2 NNW 15 28 8 15 1002.9 - 0.0
28/07:30pm 16.8 13.1 9.4 61 3.9 WNW 19 33 10 18 1003.4 - 0.0
28/07:00pm 17.0 12.2 9.0 59 4.2 N 24 37 13 20 1002.2 - 0.0
28/06:30pm 17.3 12.8 8.7 57 4.5 NNW 22 32 12 17 1001.9 - 0.0
28/06:00pm 16.1 14.0 9.7 66 3.4 ENE 11 20 6 11 1002.4 1002.5 0.0
28/05:30pm 15.9 14.7 10.3 69 3.0 N 7 11 4 6 1002.5 - 0.0
28/05:00pm 15.5 13.4 11.3 76 2.3 ENE 13 20 7 11 1003.2 - 0.0
28/04:39pm 15.0 11.9 11.7 80 1.8 E 19 22 10 12 1003.0 - 0.0
28/04:30pm 15.6 14.4 11.6 77 2.2 WSW 9 15 5 8 1005.0 - 0.0
28/04:00pm 16.1 15.1 10.9 71 2.8 ENE 7 11 4 6 1003.8 - 0.0
28/03:30pm 16.2 15.6 11.6 74 2.5 S 6 9 3 5 1004.6 - 0.0
28/03:00pm 16.9 15.4 10.4 65 3.5 NE 9 24 5 13 1005.2 1005.4 0.0
28/02:30pm 16.7 15.8 11.2 70 3.0 S 7 11 4 6 1005.7 - 0.0
28/02:00pm 17.0 15.7 11.3 69 3.1 ESE 9 13 5 7 1005.5 - 0.0
28/01:30pm 17.1 16.2 10.8 66 3.4 NW 6 9 3 5 1006.2 - 0.0
28/01:00pm 17.1 14.2 9.8 62 3.9 NW 15 20 8 11 1007.0 - 0.0
28/12:30pm 17.3 14.9 10.2 63 3.8 NW 13 19 7 10 1007.3 - 0.0
28/12:00pm 18.1 15.6 11.0 63 3.9 NW 15 28 8 15 1008.1 1008.3 0.0
28/11:30am 18.5 15.0 10.2 58 4.5 N 19 26 10 14 1007.6 - 0.0
28/11:00am 18.3 15.5 11.2 63 3.9 N 17 22 9 12 1008.0 - 0.0
28/10:30am 17.7 14.8 10.9 64 3.7 N 17 26 9 14 1008.8 - 0.0
28/10:00am 17.1 15.3 12.1 72 2.8 NNE 13 20 7 11 1009.6 - 0.0
28/09:30am 16.9 14.9 11.6 71 2.9 NE 13 19 7 10 1010.1 - 0.0
28/09:00am 16.2 14.1 11.0 71 2.8 ENE 13 20 7 11 1010.5 1010.9 0.0
28/08:30am 15.1 13.0 11.2 77 2.1 ESE 13 15 7 8 1010.9 - 0.0
28/08:00am 13.2 11.8 10.9 86 1.2 SSE 9 11 5 6 1011.3 - 0.0
28/07:30am 11.9 9.5 10.2 89 0.9 SE 13 15 7 8 1011.4 - 0.0
28/07:00am 10.8 8.2 9.4 91 0.7 SE 13 15 7 8 1011.8 - 0.0
28/06:30am 11.2 9.7 9.0 86 1.1 ESE 7 9 4 5 1011.9 - 0.0
28/06:00am 10.2 8.2 8.8 91 0.7 SSE 9 17 5 9 1011.9 1012.2 0.0
28/05:30am 10.6 7.9 8.8 89 0.9 SSE 13 17 7 9 1012.2 - 0.0
28/05:00am 10.3 8.7 8.7 90 0.8 SE 7 11 4 6 1012.4 - 0.0
28/04:30am 10.3 8.3 8.7 90 0.8 SSE 9 13 5 7 1012.9 - 0.0

Other Formats:

Comma delimited format used in spreadsheet applications
http://www.bom.gov.au/fwo/IDT60801/IDT60801.94972.axf

JavaScript Object Notation format (JSON) in row-major order
http://www.bom.gov.au/fwo/IDT60801/IDT60801.94972.json